createdAt,value
2023-04-25T00:01:48.717Z,11.72
2023-04-25T00:11:50.641Z,11.67
2023-04-25T00:21:56.952Z,11.75
2023-04-25T00:32:04.959Z,11.75
2023-04-25T00:42:07.215Z,11.59
2023-04-25T00:52:34.215Z,11.41
2023-04-25T01:02:37.557Z,11.28
2023-04-25T01:12:45.739Z,11.16
2023-04-25T01:22:56.286Z,11.06
2023-04-25T01:32:58.906Z,10.92
2023-04-25T01:43:02.141Z,10.86
2023-04-25T01:53:05.075Z,10.80
2023-04-25T02:03:09.997Z,10.75
2023-04-25T02:13:26.330Z,10.73
2023-04-25T02:23:29.409Z,10.74
2023-04-25T02:33:31.453Z,10.66
2023-04-25T02:43:33.556Z,10.62
2023-04-25T02:53:35.723Z,10.57
2023-04-25T03:03:37.702Z,10.59
2023-04-25T03:13:39.716Z,10.68
2023-04-25T03:23:41.748Z,10.71
2023-04-25T03:33:43.679Z,10.77
2023-04-25T03:43:45.664Z,10.88
2023-04-25T03:53:47.679Z,10.90
2023-04-25T04:03:50.102Z,10.88
2023-04-25T04:13:53.614Z,10.79
2023-04-25T04:23:56.087Z,10.78
2023-04-25T04:33:58.116Z,10.73
2023-04-25T04:44:02.399Z,10.66
2023-04-25T04:54:05.081Z,10.64
2023-04-25T05:04:13.149Z,10.57
2023-04-25T05:14:16.528Z,10.40
2023-04-25T05:24:19.676Z,10.44
2023-04-25T05:34:21.756Z,10.55
2023-04-25T05:44:24.835Z,10.67
2023-04-25T05:54:52.378Z,10.61
2023-04-25T06:05:00.781Z,10.54
2023-04-25T06:15:10.506Z,10.28
2023-04-25T06:25:20.113Z,10.18
2023-04-25T06:35:22.564Z,10.03
2023-04-25T06:45:37.237Z,9.93
2023-04-25T06:55:50.269Z,9.93
2023-04-25T07:05:52.234Z,10.11
2023-04-25T07:15:56.064Z,10.09
2023-04-25T07:26:04.257Z,9.94
2023-04-25T07:36:06.591Z,9.83
2023-04-25T07:46:09.678Z,10.13
2023-04-25T07:56:17.888Z,10.19
2023-04-25T08:06:41.948Z,10.06
2023-04-25T08:16:49.891Z,9.97
2023-04-25T08:26:54.118Z,10.39
2023-04-25T08:36:57.251Z,10.32
2023-04-25T08:47:07.227Z,10.16
2023-04-25T08:57:09.463Z,10.12
2023-04-25T09:07:13.590Z,10.46
2023-04-25T09:17:15.579Z,10.24
2023-04-25T09:27:24.262Z,10.36
2023-04-25T09:37:36.179Z,10.15
2023-04-25T09:47:41.410Z,10.26
2023-04-25T09:57:47.510Z,10.45
2023-04-25T10:07:49.622Z,10.44
2023-04-25T10:17:52.427Z,10.32
2023-04-25T10:28:02.228Z,10.52
2023-04-25T10:38:13.757Z,10.44
2023-04-25T10:48:31.472Z,10.55
2023-04-25T10:58:33.675Z,10.81
2023-04-25T11:08:50.971Z,10.72
2023-04-25T11:19:01.451Z,10.92
2023-04-25T11:29:18.720Z,10.83
2023-04-25T11:39:39.147Z,11.05
2023-04-25T11:49:41.129Z,11.12
2023-04-25T11:59:49.190Z,10.75
2023-04-25T12:09:58.586Z,10.91
2023-04-25T12:20:01.121Z,10.98
2023-04-25T12:30:06.297Z,10.84
2023-04-25T12:40:10.139Z,10.85
2023-04-25T12:50:16.185Z,10.95
2023-04-25T13:00:21.025Z,10.86
2023-04-25T13:10:23.040Z,10.85
2023-04-25T13:20:27.220Z,10.80
2023-04-25T13:30:29.475Z,10.78
2023-04-25T13:40:33.195Z,11.00
2023-04-25T13:50:41.338Z,11.33
2023-04-25T14:00:48.342Z,11.39
2023-04-25T14:10:50.367Z,11.38
2023-04-25T14:20:52.584Z,11.25
2023-04-25T14:30:56.756Z,10.98
2023-04-25T14:41:05.623Z,10.72
2023-04-25T14:51:09.243Z,10.46
2023-04-25T15:01:14.401Z,10.23
2023-04-25T15:11:19.439Z,10.08
2023-04-25T15:21:22.115Z,9.94
2023-04-25T15:31:25.198Z,9.91
2023-04-25T15:41:48.296Z,9.75
2023-04-25T15:51:53.584Z,9.53
2023-04-25T16:02:16.689Z,9.50
2023-04-25T16:12:18.913Z,9.33
2023-04-25T16:22:22.212Z,9.25
2023-04-25T16:32:30.269Z,9.08
2023-04-25T16:42:32.289Z,8.81
2023-04-25T16:52:59.453Z,8.61
2023-04-25T17:03:04.636Z,8.50
2023-04-25T17:13:12.626Z,8.34
2023-04-25T17:23:19.496Z,8.32
2023-04-25T17:33:38.328Z,8.31
2023-04-25T17:44:08.690Z,8.30
2023-04-25T17:54:12.162Z,8.14
2023-04-25T18:04:20.850Z,8.18
2023-04-25T18:14:23.071Z,8.18
2023-04-25T18:24:27.605Z,8.12
2023-04-25T18:34:31.632Z,8.11
2023-04-25T18:44:37.765Z,8.11
2023-04-25T18:54:40.323Z,8.12
2023-04-25T19:04:44.032Z,8.09
2023-04-25T19:14:46.793Z,8.09
2023-04-25T19:24:55.709Z,8.10
2023-04-25T19:35:12.387Z,8.08
2023-04-25T19:45:16.957Z,8.09
2023-04-25T19:55:20.062Z,8.04
2023-04-25T20:05:22.613Z,8.07
2023-04-25T20:15:26.436Z,8.05
2023-04-25T20:25:30.203Z,8.05
2023-04-25T20:35:34.616Z,8.01
2023-04-25T20:45:48.999Z,7.98
2023-04-25T20:56:01.802Z,7.95
2023-04-25T21:06:05.055Z,7.98
2023-04-25T21:16:11.047Z,8.00
2023-04-25T21:26:13.053Z,7.97
2023-04-25T21:36:14.964Z,7.95
2023-04-25T21:46:23.506Z,8.00
2023-04-25T21:56:26.129Z,8.05
2023-04-25T22:06:30.058Z,8.06
2023-04-25T22:16:33.722Z,8.06
2023-04-25T22:26:36.085Z,8.02
2023-04-25T22:36:40.786Z,7.92
2023-04-25T22:46:43.442Z,7.95
2023-04-25T22:56:45.515Z,7.87
2023-04-25T23:06:49.017Z,7.71
2023-04-25T23:17:00.524Z,7.58
2023-04-25T23:27:04.160Z,7.51
2023-04-25T23:37:06.222Z,7.42
2023-04-25T23:47:10.295Z,7.37
2023-04-25T23:57:12.402Z,7.28
